MST,Max TemperatureF,Mean TemperatureF,Min TemperatureF,Max Dew PointF,MeanDew PointF,Min DewpointF,Max Humidity, Mean Humidity, Min Humidity, Max Sea Level PressureIn, Mean Sea Level PressureIn, Min Sea Level PressureIn, Max VisibilityMiles, Mean VisibilityMiles, Min VisibilityMiles, Max Wind SpeedMPH, Mean Wind SpeedMPH, Max Gust SpeedMPH,PrecipitationIn, CloudCover, Events, WindDirDegrees
2011-11-1,47,34,20,30,22,15,100,66,31,30.55,30.36,30.22,10,8,0,8,1,29,0.00,1,Fog,298
2011-11-2,44,31,17,25,19,15,92,63,33,30.54,30.36,30.04,10,10,10,12,2,17,0.00,0,,233
2011-11-3,48,32,15,27,20,13,96,65,34,30.02,29.87,29.70,10,10,10,25,1,25,0.00,2,,290
2011-11-4,47,37,26,34,28,21,100,71,42,29.74,29.68,29.62,10,10,6,18,6,31,0.02,6,Rain-Snow,346
2011-11-5,41,31,20,32,28,19,100,72,44,29.88,29.74,29.65,10,7,1,9,1,16,0.01,7,Snow,242
2011-11-6,33,26,19,25,22,17,92,81,69,30.14,29.99,29.83,10,10,9,7,0,26,T,7,Snow,315
2011-11-7,36,32,28,27,24,21,92,74,56,30.22,30.17,30.08,10,10,9,13,5,20,0.00,8,,174
2011-11-8,42,35,28,34,30,26,100,82,64,30.45,30.27,30.09,10,10,4,12,4,16,0.01,7,Snow,189
2011-11-9,44,33,22,32,26,21,100,81,62,30.55,30.44,30.28,10,6,0,3,0,6,0.00,4,Fog,294
2011-11-10,44,32,20,33,24,19,100,84,67,30.36,30.19,30.02,10,4,0,9,1,10,0.00,5,Fog,287
2011-11-11,50,34,18,29,23,17,100,66,31,29.99,29.66,29.38,10,10,10,20,4,28,0.00,3,,205
2011-11-12,41,37,32,31,26,22,85,69,52,29.66,29.53,29.36,10,10,10,18,11,23,0.00,8,,194
2011-11-13,43,37,31,34,29,25,92,72,51,29.58,29.47,29.35,10,10,6,22,10,28,0.02,7,Snow,180
2011-11-14,43,31,18,31,25,6,100,68,36,29.92,29.56,29.45,10,7,0,28,6,41,0.05,5,Fog-Snow,246
2011-11-15,33,23,13,21,15,8,84,64,43,30.36,30.10,29.94,10,8,0,20,3,37,T,4,Snow,217
2011-11-16,30,17,4,18,11,1,88,69,50,30.48,30.30,29.90,10,10,10,15,0,21,0.00,3,,340
2011-11-17,40,26,11,29,23,11,100,74,48,29.89,29.63,29.50,10,6,0,25,7,32,0.18,6,Fog-Snow,232
2011-11-18,27,19,11,21,11,3,96,76,56,29.88,29.73,29.62,10,7,2,30,18,94,0.01,8,Snow,23
2011-11-19,22,16,10,12,5,0,80,68,56,30.03,29.95,29.81,10,9,4,18,5,24,T,7,Snow,13
2011-11-20,24,20,16,19,15,12,92,85,77,30.06,30.00,29.88,10,8,2,9,0,28,0.01,8,Snow,270
2011-11-21,38,31,23,30,25,19,92,81,70,30.01,29.93,29.80,10,8,2,16,2,22,T,8,Snow,168
2011-11-22,48,41,33,36,33,29,89,73,56,29.93,29.81,29.75,10,10,10,23,12,30,T,8,Rain,175
2011-11-23,52,49,45,36,32,29,65,54,42,29.80,29.67,29.60,10,10,10,30,13,38,T,6,Rain,172
2011-11-24,48,39,29,36,32,26,92,71,49,29.83,29.71,29.60,10,10,10,15,5,21,T,7,Rain,197
2011-11-25,40,31,22,36,26,16,92,66,40,30.60,29.95,29.59,10,9,1,22,7,29,0.01,5,Rain-Snow,214
2011-11-26,35,25,15,24,19,13,92,72,51,30.66,30.57,30.41,10,10,10,12,2,76,0.00,5,,230
2011-11-27,52,36,19,36,26,16,92,67,41,30.44,30.18,29.94,10,10,5,32,4,43,0.03,5,Rain,200
2011-11-28,46,36,25,35,28,22,92,69,45,30.44,30.35,30.19,10,10,10,14,5,20,T,4,Rain,212
2011-11-29,37,29,21,32,28,20,100,88,75,30.43,30.21,29.96,10,8,4,5,0,6,0.04,6,Rain,285
2011-11-30,42,32,22,33,27,18,100,77,54,30.73,30.29,29.95,10,8,2,21,5,26,0.03,5,Rain,11